sensor_id;sensor_type;location;lat;lon;timestamp;pressure;altitude;pressure_sealevel;temperature;humidity
37972;BME280;23794;48.234;8.344;2023-08-20T00:01:42;94802.88;;;18.50;79.18
37972;BME280;23794;48.234;8.344;2023-08-20T00:04:09;94803.59;;;18.54;78.60
37972;BME280;23794;48.234;8.344;2023-08-20T00:06:36;94793.69;;;18.53;77.97
37972;BME280;23794;48.234;8.344;2023-08-20T00:09:03;94796.56;;;18.49;79.11
37972;BME280;23794;48.234;8.344;2023-08-20T00:11:30;94795.22;;;18.41;79.23
37972;BME280;23794;48.234;8.344;2023-08-20T00:13:57;94788.09;;;18.40;80.09
37972;BME280;23794;48.234;8.344;2023-08-20T00:16:24;94787.00;;;18.37;80.36
37972;BME280;23794;48.234;8.344;2023-08-20T00:18:51;94788.09;;;18.40;80.19
37972;BME280;23794;48.234;8.344;2023-08-20T00:21:17;94797.53;;;18.42;79.70
37972;BME280;23794;48.234;8.344;2023-08-20T00:23:44;94787.91;;;18.47;78.88
37972;BME280;23794;48.234;8.344;2023-08-20T00:26:11;94794.25;;;18.47;78.74
37972;BME280;23794;48.234;8.344;2023-08-20T00:28:39;94797.31;;;18.37;80.05
37972;BME280;23794;48.234;8.344;2023-08-20T00:31:06;94793.75;;;18.36;80.24
37972;BME280;23794;48.234;8.344;2023-08-20T00:33:34;94801.63;;;18.38;79.85
37972;BME280;23794;48.234;8.344;2023-08-20T00:36:00;94805.28;;;18.35;79.54
37972;BME280;23794;48.234;8.344;2023-08-20T00:38:27;94801.41;;;18.32;79.88
37972;BME280;23794;48.234;8.344;2023-08-20T00:40:54;94804.06;;;18.36;79.25
37972;BME280;23794;48.234;8.344;2023-08-20T00:43:20;94798.28;;;18.30;79.67
37972;BME280;23794;48.234;8.344;2023-08-20T00:45:48;94807.13;;;18.25;80.98
37972;BME280;23794;48.234;8.344;2023-08-20T00:48:15;94798.72;;;18.28;80.46
37972;BME280;23794;48.234;8.344;2023-08-20T00:50:42;94806.50;;;18.34;79.79
37972;BME280;23794;48.234;8.344;2023-08-20T00:53:10;94801.81;;;18.30;79.70
37972;BME280;23794;48.234;8.344;2023-08-20T00:55:38;94793.59;;;18.27;80.54
37972;BME280;23794;48.234;8.344;2023-08-20T00:58:05;94805.22;;;18.22;81.51
37972;BME280;23794;48.234;8.344;2023-08-20T01:00:32;94799.31;;;18.20;81.36
37972;BME280;23794;48.234;8.344;2023-08-20T01:02:59;94794.59;;;18.20;80.53
37972;BME280;23794;48.234;8.344;2023-08-20T01:05:26;94795.16;;;18.28;80.61
37972;BME280;23794;48.234;8.344;2023-08-20T01:13:08;94792.56;;;18.21;81.59
37972;BME280;23794;48.234;8.344;2023-08-20T01:15:36;94794.91;;;18.22;81.05
37972;BME280;23794;48.234;8.344;2023-08-20T01:18:02;94790.41;;;18.28;80.59
37972;BME280;23794;48.234;8.344;2023-08-20T01:20:33;94796.13;;;18.21;81.52
37972;BME280;23794;48.234;8.344;2023-08-20T01:28:44;94795.88;;;18.15;81.36
37972;BME280;23794;48.234;8.344;2023-08-20T01:31:12;94791.47;;;18.18;81.39
37972;BME280;23794;48.234;8.344;2023-08-20T01:33:40;94793.88;;;18.16;81.67
37972;BME280;23794;48.234;8.344;2023-08-20T01:36:07;94788.88;;;18.11;82.02
37972;BME280;23794;48.234;8.344;2023-08-20T01:38:36;94789.53;;;18.15;82.11
37972;BME280;23794;48.234;8.344;2023-08-20T01:41:04;94796.25;;;18.18;81.94
37972;BME280;23794;48.234;8.344;2023-08-20T01:43:32;94794.59;;;18.20;81.34
37972;BME280;23794;48.234;8.344;2023-08-20T01:45:59;94793.03;;;18.19;81.11
37972;BME280;23794;48.234;8.344;2023-08-20T01:48:25;94787.13;;;18.17;81.85
37972;BME280;23794;48.234;8.344;2023-08-20T01:50:52;94790.88;;;18.10;82.61
37972;BME280;23794;48.234;8.344;2023-08-20T01:53:19;94793.66;;;18.10;82.66
37972;BME280;23794;48.234;8.344;2023-08-20T01:55:46;94794.41;;;18.11;82.55
37972;BME280;23794;48.234;8.344;2023-08-20T01:58:13;94796.25;;;18.18;81.68
37972;BME280;23794;48.234;8.344;2023-08-20T02:00:41;94810.97;;;18.14;82.09
37972;BME280;23794;48.234;8.344;2023-08-20T02:03:08;94811.16;;;18.07;82.98
37972;BME280;23794;48.234;8.344;2023-08-20T02:05:34;94812.78;;;18.05;83.10
37972;BME280;23794;48.234;8.344;2023-08-20T02:08:04;94815.03;;;18.10;83.04
37972;BME280;23794;48.234;8.344;2023-08-20T02:10:31;94818.16;;;18.12;82.04
37972;BME280;23794;48.234;8.344;2023-08-20T02:12:57;94812.34;;;18.06;82.72
37972;BME280;23794;48.234;8.344;2023-08-20T02:15:24;94814.00;;;18.04;82.56
37972;BME280;23794;48.234;8.344;2023-08-20T02:17:51;94809.03;;;18.11;82.66
37972;BME280;23794;48.234;8.344;2023-08-20T02:20:17;94823.88;;;18.05;82.71
37972;BME280;23794;48.234;8.344;2023-08-20T02:22:44;94829.53;;;18.01;82.42
37972;BME280;23794;48.234;8.344;2023-08-20T02:25:11;94828.53;;;18.08;82.69
37972;BME280;23794;48.234;8.344;2023-08-20T02:27:38;94833.06;;;18.02;82.81
37972;BME280;23794;48.234;8.344;2023-08-20T02:30:05;94832.97;;;18.05;83.26
37972;BME280;23794;48.234;8.344;2023-08-20T02:32:31;94830.28;;;18.02;83.14
37972;BME280;23794;48.234;8.344;2023-08-20T02:35:00;94831.84;;;18.03;83.03
37972;BME280;23794;48.234;8.344;2023-08-20T02:37:26;94835.41;;;18.03;83.00
37972;BME280;23794;48.234;8.344;2023-08-20T02:39:53;94834.44;;;17.93;84.27
37972;BME280;23794;48.234;8.344;2023-08-20T02:42:19;94823.28;;;17.97;84.41
37972;BME280;23794;48.234;8.344;2023-08-20T02:44:46;94829.97;;;17.99;83.92
37972;BME280;23794;48.234;8.344;2023-08-20T02:47:13;94823.09;;;18.04;83.06
37972;BME280;23794;48.234;8.344;2023-08-20T02:49:39;94829.78;;;18.07;83.36
37972;BME280;23794;48.234;8.344;2023-08-20T02:52:06;94829.97;;;17.99;84.50
37972;BME280;23794;48.234;8.344;2023-08-20T02:54:32;94831.41;;;18.04;84.36
37972;BME280;23794;48.234;8.344;2023-08-20T02:56:59;94824.06;;;18.14;83.91
37972;BME280;23794;48.234;8.344;2023-08-20T02:59:26;94828.34;;;18.15;83.92
37972;BME280;23794;48.234;8.344;2023-08-20T03:01:52;94826.38;;;18.15;83.96
37972;BME280;23794;48.234;8.344;2023-08-20T03:04:19;94825.25;;;18.13;83.13
37972;BME280;23794;48.234;8.344;2023-08-20T03:06:46;94809.41;;;18.13;82.99
37972;BME280;23794;48.234;8.344;2023-08-20T03:09:13;94817.44;;;18.08;83.24
37972;BME280;23794;48.234;8.344;2023-08-20T03:11:39;94813.56;;;18.05;83.15
37972;BME280;23794;48.234;8.344;2023-08-20T03:14:06;94808.09;;;18.02;83.78
37972;BME280;23794;48.234;8.344;2023-08-20T03:16:33;94803.78;;;18.00;84.68
37972;BME280;23794;48.234;8.344;2023-08-20T03:18:59;94801.19;;;17.93;85.33
37972;BME280;23794;48.234;8.344;2023-08-20T03:21:26;94802.75;;;17.94;85.61
37972;BME280;23794;48.234;8.344;2023-08-20T03:23:53;94794.09;;;17.92;85.59
37972;BME280;23794;48.234;8.344;2023-08-20T03:26:19;94794.44;;;17.94;85.83
37972;BME280;23794;48.234;8.344;2023-08-20T03:28:46;94796.34;;;17.97;85.54
37972;BME280;23794;48.234;8.344;2023-08-20T03:31:13;94786.03;;;17.98;85.20
37972;BME280;23794;48.234;8.344;2023-08-20T03:33:42;94782.16;;;17.95;83.91
37972;BME280;23794;48.234;8.344;2023-08-20T03:36:09;94790.56;;;17.92;83.71
37972;BME280;23794;48.234;8.344;2023-08-20T03:38:35;94782.16;;;17.95;83.48
37972;BME280;23794;48.234;8.344;2023-08-20T03:41:03;94780.22;;;17.92;84.48
37972;BME280;23794;48.234;8.344;2023-08-20T03:43:30;94785.06;;;17.88;84.60
37972;BME280;23794;48.234;8.344;2023-08-20T03:45:57;94782.31;;;17.88;84.88
37972;BME280;23794;48.234;8.344;2023-08-20T03:48:23;94781.28;;;17.98;84.00
37972;BME280;23794;48.234;8.344;2023-08-20T03:50:51;94791.31;;;17.92;85.30
37972;BME280;23794;48.234;8.344;2023-08-20T03:53:17;94796.44;;;17.94;84.77
37972;BME280;23794;48.234;8.344;2023-08-20T03:55:48;94804.91;;;17.87;85.49
37972;BME280;23794;48.234;8.344;2023-08-20T03:58:16;94798.94;;;17.88;84.67
37972;BME280;23794;48.234;8.344;2023-08-20T04:00:43;94810.19;;;17.81;85.96
37972;BME280;23794;48.234;8.344;2023-08-20T04:03:10;94796.59;;;17.87;84.97
37972;BME280;23794;48.234;8.344;2023-08-20T04:05:37;94791.31;;;17.92;85.12
37972;BME280;23794;48.234;8.344;2023-08-20T04:08:04;94794.50;;;17.91;85.61
37972;BME280;23794;48.234;8.344;2023-08-20T04:10:31;94790.97;;;17.90;86.71
37972;BME280;23794;48.234;8.344;2023-08-20T04:12:58;94801.19;;;17.93;86.06
37972;BME280;23794;48.234;8.344;2023-08-20T04:15:25;94802.31;;;17.96;85.15
37972;BME280;23794;48.234;8.344;2023-08-20T04:17:52;94807.94;;;17.92;85.08
37972;BME280;23794;48.234;8.344;2023-08-20T04:20:19;94805.69;;;17.87;85.64
37972;BME280;23794;48.234;8.344;2023-08-20T04:22:46;94805.31;;;17.85;84.87
37972;BME280;23794;48.234;8.344;2023-08-20T04:25:12;94798.56;;;17.86;85.28
37972;BME280;23794;48.234;8.344;2023-08-20T04:27:39;94806.31;;;17.95;85.58
37972;BME280;23794;48.234;8.344;2023-08-20T04:30:06;94806.31;;;17.95;85.67
37972;BME280;23794;48.234;8.344;2023-08-20T04:32:33;94802.31;;;17.96;86.24
37972;BME280;23794;48.234;8.344;2023-08-20T04:35:00;94802.91;;;18.04;85.63
37972;BME280;23794;48.234;8.344;2023-08-20T04:37:27;94808.91;;;18.02;86.26
37972;BME280;23794;48.234;8.344;2023-08-20T04:39:55;94807.25;;;18.05;86.21
37972;BME280;23794;48.234;8.344;2023-08-20T04:42:22;94807.94;;;18.09;85.69
37972;BME280;23794;48.234;8.344;2023-08-20T04:44:50;94809.50;;;18.10;85.19
37972;BME280;23794;48.234;8.344;2023-08-20T04:47:18;94806.97;;;18.15;84.93
37972;BME280;23794;48.234;8.344;2023-08-20T04:49:45;94809.66;;;18.19;85.20
37972;BME280;23794;48.234;8.344;2023-08-20T04:52:12;94800.38;;;18.26;85.65
37972;BME280;23794;48.234;8.344;2023-08-20T04:54:39;94793.75;;;18.36;86.13
37972;BME280;23794;48.234;8.344;2023-08-20T04:57:07;94797.63;;;18.39;86.28
37972;BME280;23794;48.234;8.344;2023-08-20T04:59:34;94798.91;;;18.51;86.18
37972;BME280;23794;48.234;8.344;2023-08-20T05:02:21;94800.25;;;18.59;85.73
37972;BME280;23794;48.234;8.344;2023-08-20T05:04:55;94804.03;;;18.65;85.05
37972;BME280;23794;48.234;8.344;2023-08-20T05:07:22;94797.19;;;18.70;85.11
37972;BME280;23794;48.234;8.344;2023-08-20T05:09:49;94802.78;;;18.83;84.87
37972;BME280;23794;48.234;8.344;2023-08-20T05:12:16;94808.28;;;18.99;84.21
37972;BME280;23794;48.234;8.344;2023-08-20T05:14:43;94805.84;;;19.01;83.14
37972;BME280;23794;48.234;8.344;2023-08-20T05:17:10;94814.97;;;19.15;82.74
37972;BME280;23794;48.234;8.344;2023-08-20T05:19:36;94810.84;;;19.19;83.19
37972;BME280;23794;48.234;8.344;2023-08-20T05:22:03;94809.72;;;19.30;84.02
37972;BME280;23794;48.234;8.344;2023-08-20T05:24:33;94805.41;;;19.29;83.95
37972;BME280;23794;48.234;8.344;2023-08-20T05:27:11;94801.84;;;19.28;82.83
37972;BME280;23794;48.234;8.344;2023-08-20T05:29:41;94807.75;;;19.30;82.60
37972;BME280;23794;48.234;8.344;2023-08-20T05:32:08;94805.28;;;19.32;82.54
37972;BME280;23794;48.234;8.344;2023-08-20T05:34:35;94807.19;;;19.48;82.29
37972;BME280;23794;48.234;8.344;2023-08-20T05:37:02;94808.31;;;19.51;81.25
37972;BME280;23794;48.234;8.344;2023-08-20T05:39:30;94799.84;;;19.54;81.08
37972;BME280;23794;48.234;8.344;2023-08-20T05:42:03;94802.97;;;19.56;81.17
37972;BME280;23794;48.234;8.344;2023-08-20T05:44:33;94806.97;;;19.68;81.01
37972;BME280;23794;48.234;8.344;2023-08-20T05:47:01;94806.31;;;19.77;81.28
37972;BME280;23794;48.234;8.344;2023-08-20T05:49:28;94802.41;;;19.87;80.89
37972;BME280;23794;48.234;8.344;2023-08-20T05:51:57;94810.94;;;19.93;80.66
37972;BME280;23794;48.234;8.344;2023-08-20T05:54:24;94814.50;;;19.94;80.75
37972;BME280;23794;48.234;8.344;2023-08-20T05:56:53;94815.06;;;19.88;80.66
37972;BME280;23794;48.234;8.344;2023-08-20T05:59:24;94814.97;;;19.92;80.68
37972;BME280;23794;48.234;8.344;2023-08-20T06:01:52;94826.41;;;19.94;80.44
37972;BME280;23794;48.234;8.344;2023-08-20T06:04:20;94822.63;;;19.88;80.73
37972;BME280;23794;48.234;8.344;2023-08-20T06:06:47;94820.84;;;19.94;80.58
37972;BME280;23794;48.234;8.344;2023-08-20T06:09:13;94820.94;;;20.03;80.09
37972;BME280;23794;48.234;8.344;2023-08-20T06:11:41;94821.38;;;20.02;79.80
37972;BME280;23794;48.234;8.344;2023-08-20T06:14:08;94826.63;;;20.00;79.85
37972;BME280;23794;48.234;8.344;2023-08-20T06:16:34;94828.41;;;19.94;80.54
37972;BME280;23794;48.234;8.344;2023-08-20T06:19:01;94835.31;;;19.89;80.74
37972;BME280;23794;48.234;8.344;2023-08-20T06:21:30;94834.31;;;19.96;81.08
37972;BME280;23794;48.234;8.344;2023-08-20T06:23:57;94837.41;;;19.98;81.53
37972;BME280;23794;48.234;8.344;2023-08-20T06:26:23;94832.88;;;19.91;81.71
37972;BME280;23794;48.234;8.344;2023-08-20T06:28:50;94836.41;;;19.92;81.78
37972;BME280;23794;48.234;8.344;2023-08-20T06:31:16;94831.84;;;19.98;81.90
37972;BME280;23794;48.234;8.344;2023-08-20T06:33:43;94837.84;;;20.09;81.45
37972;BME280;23794;48.234;8.344;2023-08-20T06:36:10;94840.50;;;20.13;81.48
37972;BME280;23794;48.234;8.344;2023-08-20T06:38:36;94839.28;;;20.14;81.21
37972;BME280;23794;48.234;8.344;2023-08-20T06:41:03;94841.13;;;20.17;81.41
37972;BME280;23794;48.234;8.344;2023-08-20T06:43:30;94842.06;;;20.14;81.99
37972;BME280;23794;48.234;8.344;2023-08-20T06:45:57;94847.03;;;20.19;81.52
37972;BME280;23794;48.234;8.344;2023-08-20T06:48:23;94839.78;;;20.21;81.36
37972;BME280;23794;48.234;8.344;2023-08-20T06:50:51;94845.78;;;20.33;81.89
37972;BME280;23794;48.234;8.344;2023-08-20T06:53:18;94849.38;;;20.56;81.89
37972;BME280;23794;48.234;8.344;2023-08-20T06:55:44;94849.28;;;20.81;80.92
37972;BME280;23794;48.234;8.344;2023-08-20T06:58:11;94852.47;;;20.93;80.01
37972;BME280;23794;48.234;8.344;2023-08-20T07:00:37;94854.06;;;21.03;79.71
37972;BME280;23794;48.234;8.344;2023-08-20T07:03:04;94852.44;;;21.15;79.27
37972;BME280;23794;48.234;8.344;2023-08-20T07:05:31;94844.34;;;21.30;79.16
37972;BME280;23794;48.234;8.344;2023-08-20T07:07:57;94847.38;;;21.45;78.94
37972;BME280;23794;48.234;8.344;2023-08-20T07:10:24;94850.66;;;21.53;78.37
37972;BME280;23794;48.234;8.344;2023-08-20T07:12:51;94853.72;;;21.45;78.42
37972;BME280;23794;48.234;8.344;2023-08-20T07:15:19;94854.78;;;21.39;78.67
37972;BME280;23794;48.234;8.344;2023-08-20T07:17:46;94861.53;;;21.38;79.09
37972;BME280;23794;48.234;8.344;2023-08-20T07:20:12;94860.44;;;21.35;78.97
37972;BME280;23794;48.234;8.344;2023-08-20T07:22:39;94851.19;;;21.38;78.97
37972;BME280;23794;48.234;8.344;2023-08-20T07:25:06;94858.69;;;21.51;79.09
37972;BME280;23794;48.234;8.344;2023-08-20T07:27:33;94863.28;;;21.76;78.42
37972;BME280;23794;48.234;8.344;2023-08-20T07:30:00;94859.66;;;21.98;77.96
37972;BME280;23794;48.234;8.344;2023-08-20T07:32:26;94868.69;;;22.11;77.26
37972;BME280;23794;48.234;8.344;2023-08-20T07:34:53;94870.28;;;22.21;76.23
37972;BME280;23794;48.234;8.344;2023-08-20T07:37:20;94873.06;;;22.21;75.58
37972;BME280;23794;48.234;8.344;2023-08-20T07:39:47;94869.66;;;22.26;75.54
37972;BME280;23794;48.234;8.344;2023-08-20T07:42:14;94867.66;;;22.46;75.25
37972;BME280;23794;48.234;8.344;2023-08-20T07:44:40;94868.31;;;22.59;75.27
37972;BME280;23794;48.234;8.344;2023-08-20T07:47:07;94875.28;;;22.73;74.90
37972;BME280;23794;48.234;8.344;2023-08-20T07:49:34;94872.66;;;22.88;74.22
37972;BME280;23794;48.234;8.344;2023-08-20T07:52:00;94875.63;;;23.03;74.14
37972;BME280;23794;48.234;8.344;2023-08-20T07:54:27;94882.28;;;23.15;73.62
37972;BME280;23794;48.234;8.344;2023-08-20T07:56:55;94870.00;;;23.31;73.52
37972;BME280;23794;48.234;8.344;2023-08-20T07:59:21;94870.00;;;23.31;73.00
37972;BME280;23794;48.234;8.344;2023-08-20T08:01:48;94874.31;;;23.41;72.10
37972;BME280;23794;48.234;8.344;2023-08-20T08:04:16;94873.53;;;23.50;71.69
37972;BME280;23794;48.234;8.344;2023-08-20T08:06:42;94876.09;;;23.63;71.48
37972;BME280;23794;48.234;8.344;2023-08-20T08:09:29;94871.78;;;23.62;70.21
37972;BME280;23794;48.234;8.344;2023-08-20T08:11:57;94877.50;;;23.67;70.01
37972;BME280;23794;48.234;8.344;2023-08-20T08:14:24;94871.41;;;23.78;69.16
37972;BME280;23794;48.234;8.344;2023-08-20T08:16:51;94870.31;;;23.85;69.42
37972;BME280;23794;48.234;8.344;2023-08-20T08:19:18;94868.97;;;24.05;69.21
37972;BME280;23794;48.234;8.344;2023-08-20T08:21:46;94869.81;;;24.20;69.48
37972;BME280;23794;48.234;8.344;2023-08-20T08:24:13;94875.38;;;24.29;68.95
37972;BME280;23794;48.234;8.344;2023-08-20T08:26:40;94878.56;;;24.46;68.89
37972;BME280;23794;48.234;8.344;2023-08-20T08:29:08;94873.06;;;24.52;67.33
37972;BME280;23794;48.234;8.344;2023-08-20T08:31:35;94871.16;;;24.58;66.80
37972;BME280;23794;48.234;8.344;2023-08-20T08:34:02;94868.97;;;24.62;67.03
37972;BME280;23794;48.234;8.344;2023-08-20T08:36:29;94871.91;;;24.83;66.80
37972;BME280;23794;48.234;8.344;2023-08-20T08:38:56;94864.38;;;24.89;65.58
37972;BME280;23794;48.234;8.344;2023-08-20T08:41:22;94870.22;;;25.01;65.73
37972;BME280;23794;48.234;8.344;2023-08-20T08:43:53;94869.19;;;25.13;64.37
37972;BME280;23794;48.234;8.344;2023-08-20T08:46:23;94863.59;;;25.13;63.52
37972;BME280;23794;48.234;8.344;2023-08-20T08:48:51;94869.69;;;25.26;63.75
37972;BME280;23794;48.234;8.344;2023-08-20T08:51:18;94874.25;;;25.39;63.49
37972;BME280;23794;48.234;8.344;2023-08-20T08:53:46;94867.00;;;25.47;62.50
37972;BME280;23794;48.234;8.344;2023-08-20T08:56:13;94876.34;;;25.59;62.56
37972;BME280;23794;48.234;8.344;2023-08-20T08:58:40;94872.28;;;25.75;63.04
37972;BME280;23794;48.234;8.344;2023-08-20T09:01:07;94866.59;;;25.84;61.90
37972;BME280;23794;48.234;8.344;2023-08-20T09:03:34;94877.47;;;25.97;61.67
37972;BME280;23794;48.234;8.344;2023-08-20T09:06:01;94872.25;;;26.05;61.43
37972;BME280;23794;48.234;8.344;2023-08-20T09:08:30;94868.53;;;26.14;60.42
37972;BME280;23794;48.234;8.344;2023-08-20T09:10:59;94868.03;;;26.15;60.10
37972;BME280;23794;48.234;8.344;2023-08-20T09:13:37;94870.06;;;26.30;60.02
37972;BME280;23794;48.234;8.344;2023-08-20T09:16:05;94860.34;;;26.46;59.44
37972;BME280;23794;48.234;8.344;2023-08-20T09:18:38;94852.66;;;26.46;58.26
37972;BME280;23794;48.234;8.344;2023-08-20T09:21:09;94861.47;;;26.54;57.96
37972;BME280;23794;48.234;8.344;2023-08-20T09:23:36;94863.34;;;26.63;58.39
37972;BME280;23794;48.234;8.344;2023-08-20T09:26:04;94854.91;;;26.83;58.05
37972;BME280;23794;48.234;8.344;2023-08-20T09:28:44;94856.59;;;26.96;54.80
37972;BME280;23794;48.234;8.344;2023-08-20T09:31:12;94868.47;;;27.06;56.20
37972;BME280;23794;48.234;8.344;2023-08-20T09:33:51;94858.72;;;27.27;55.61
37972;BME280;23794;48.234;8.344;2023-08-20T09:36:18;94860.16;;;27.43;55.15
37972;BME280;23794;48.234;8.344;2023-08-20T09:38:45;94860.41;;;27.45;54.86
37972;BME280;23794;48.234;8.344;2023-08-20T09:41:16;94865.56;;;27.47;53.98
37972;BME280;23794;48.234;8.344;2023-08-20T09:43:45;94863.00;;;27.49;52.50
37972;BME280;23794;48.234;8.344;2023-08-20T09:46:13;94860.41;;;27.45;53.21
37972;BME280;23794;48.234;8.344;2023-08-20T09:48:41;94867.25;;;27.65;52.29
37972;BME280;23794;48.234;8.344;2023-08-20T09:51:11;94857.78;;;27.68;52.11
37972;BME280;23794;48.234;8.344;2023-08-20T09:53:44;94856.19;;;27.88;52.95
37972;BME280;23794;48.234;8.344;2023-08-20T09:56:41;94857.13;;;28.11;52.40
37972;BME280;23794;48.234;8.344;2023-08-20T09:59:10;94858.06;;;28.34;51.57
37972;BME280;23794;48.234;8.344;2023-08-20T10:01:38;94856.03;;;28.40;51.64
37972;BME280;23794;48.234;8.344;2023-08-20T10:04:05;94850.44;;;28.52;50.31
37972;BME280;23794;48.234;8.344;2023-08-20T10:06:32;94853.66;;;28.82;49.69
37972;BME280;23794;48.234;8.344;2023-08-20T10:08:59;94857.84;;;29.04;49.88
37972;BME280;23794;48.234;8.344;2023-08-20T10:11:26;94857.63;;;29.25;48.64
37972;BME280;23794;48.234;8.344;2023-08-20T10:13:53;94861.50;;;29.39;47.68
37972;BME280;23794;48.234;8.344;2023-08-20T10:16:20;94856.16;;;29.52;48.20
37972;BME280;23794;48.234;8.344;2023-08-20T10:18:48;94858.44;;;29.48;48.23
37972;BME280;23794;48.234;8.344;2023-08-20T10:21:15;94854.88;;;29.70;48.72
37972;BME280;23794;48.234;8.344;2023-08-20T10:23:48;94853.59;;;30.00;46.17
37972;BME280;23794;48.234;8.344;2023-08-20T10:26:15;94850.53;;;29.80;47.27
37972;BME280;23794;48.234;8.344;2023-08-20T10:28:43;94853.34;;;29.92;46.80
37972;BME280;23794;48.234;8.344;2023-08-20T10:31:11;94854.88;;;29.98;46.50
37972;BME280;23794;48.234;8.344;2023-08-20T10:33:49;94847.16;;;29.99;44.96
37972;BME280;23794;48.234;8.344;2023-08-20T10:36:18;94843.84;;;30.18;45.13
37972;BME280;23794;48.234;8.344;2023-08-20T10:38:50;94845.88;;;30.23;43.54
37972;BME280;23794;48.234;8.344;2023-08-20T10:41:24;94845.13;;;30.17;44.87
37972;BME280;23794;48.234;8.344;2023-08-20T10:43:51;94844.09;;;30.14;43.39
37972;BME280;23794;48.234;8.344;2023-08-20T10:46:20;94842.03;;;30.14;44.10
37972;BME280;23794;48.234;8.344;2023-08-20T10:48:56;94835.09;;;30.16;44.30
37972;BME280;23794;48.234;8.344;2023-08-20T10:51:32;94836.88;;;30.30;44.79
37972;BME280;23794;48.234;8.344;2023-08-20T10:56:44;94839.09;;;30.66;42.64
37972;BME280;23794;48.234;8.344;2023-08-20T10:59:16;94838.31;;;30.71;43.99
37972;BME280;23794;48.234;8.344;2023-08-20T11:01:48;94830.25;;;30.92;42.08
37972;BME280;23794;48.234;8.344;2023-08-20T11:04:16;94834.19;;;30.72;41.47
37972;BME280;23794;48.234;8.344;2023-08-20T11:06:44;94837.06;;;30.49;41.46
37972;BME280;23794;48.234;8.344;2023-08-20T11:09:11;94835.25;;;30.52;43.40
37972;BME280;23794;48.234;8.344;2023-08-20T11:11:39;94839.81;;;30.83;41.58
37972;BME280;23794;48.234;8.344;2023-08-20T11:14:07;94833.41;;;31.19;40.91
37972;BME280;23794;48.234;8.344;2023-08-20T11:16:34;94845.25;;;31.17;40.17
37972;BME280;23794;48.234;8.344;2023-08-20T11:19:04;94828.66;;;31.44;40.74
37972;BME280;23794;48.234;8.344;2023-08-20T11:21:39;94832.53;;;31.77;39.51
37972;BME280;23794;48.234;8.344;2023-08-20T11:24:07;94832.34;;;32.00;40.22
37972;BME280;23794;48.234;8.344;2023-08-20T11:26:34;94834.34;;;32.05;39.86
37972;BME280;23794;48.234;8.344;2023-08-20T11:29:06;94831.56;;;32.24;38.50
37972;BME280;23794;48.234;8.344;2023-08-20T11:31:33;94827.00;;;31.91;38.71
37972;BME280;23794;48.234;8.344;2023-08-20T11:34:01;94824.78;;;32.08;39.29
37972;BME280;23794;48.234;8.344;2023-08-20T11:36:29;94826.41;;;32.28;38.92
37972;BME280;23794;48.234;8.344;2023-08-20T11:38:56;94824.25;;;32.40;38.40
37972;BME280;23794;48.234;8.344;2023-08-20T11:41:25;94814.66;;;32.43;37.96
37972;BME280;23794;48.234;8.344;2023-08-20T11:43:55;94821.06;;;32.49;38.08
37972;BME280;23794;48.234;8.344;2023-08-20T11:46:23;94810.31;;;32.61;38.43
37972;BME280;23794;48.234;8.344;2023-08-20T11:51:36;94804.75;;;32.75;37.47
37972;BME280;23794;48.234;8.344;2023-08-20T11:54:13;94814.19;;;32.83;36.64
37972;BME280;23794;48.234;8.344;2023-08-20T11:56:48;94809.75;;;32.88;37.43
37972;BME280;23794;48.234;8.344;2023-08-20T11:59:17;94805.03;;;32.52;36.60
37972;BME280;23794;48.234;8.344;2023-08-20T12:02:01;94809.59;;;32.11;37.77
37972;BME280;23794;48.234;8.344;2023-08-20T12:04:30;94809.03;;;32.13;37.82
37972;BME280;23794;48.234;8.344;2023-08-20T12:07:13;94805.00;;;32.33;38.55
37972;BME280;23794;48.234;8.344;2023-08-20T12:09:40;94812.56;;;32.49;36.92
37972;BME280;23794;48.234;8.344;2023-08-20T12:12:07;94806.53;;;32.34;37.83
37972;BME280;23794;48.234;8.344;2023-08-20T12:14:35;94800.81;;;32.59;38.91
37972;BME280;23794;48.234;8.344;2023-08-20T12:17:02;94802.00;;;32.69;39.01
37972;BME280;23794;48.234;8.344;2023-08-20T12:19:30;94795.88;;;32.84;37.94
37972;BME280;23794;48.234;8.344;2023-08-20T12:21:56;94790.69;;;32.88;36.96
37972;BME280;23794;48.234;8.344;2023-08-20T12:24:23;94796.72;;;32.98;37.94
37972;BME280;23794;48.234;8.344;2023-08-20T12:26:50;94789.38;;;32.89;37.37
37972;BME280;23794;48.234;8.344;2023-08-20T12:29:17;94783.72;;;33.08;38.08
37972;BME280;23794;48.234;8.344;2023-08-20T12:31:44;94792.31;;;33.35;37.57
37972;BME280;23794;48.234;8.344;2023-08-20T12:34:11;94790.88;;;33.48;36.51
37972;BME280;23794;48.234;8.344;2023-08-20T12:36:37;94792.50;;;33.43;36.72
37972;BME280;23794;48.234;8.344;2023-08-20T12:39:04;94788.00;;;33.67;35.47
37972;BME280;23794;48.234;8.344;2023-08-20T12:41:31;94785.59;;;33.71;35.55
37972;BME280;23794;48.234;8.344;2023-08-20T12:43:58;94779.34;;;33.07;36.02
37972;BME280;23794;48.234;8.344;2023-08-20T12:46:25;94780.41;;;32.85;36.83
37972;BME280;23794;48.234;8.344;2023-08-20T12:48:52;94787.22;;;32.95;36.42
37972;BME280;23794;48.234;8.344;2023-08-20T12:51:18;94774.59;;;32.96;36.67
37972;BME280;23794;48.234;8.344;2023-08-20T12:53:45;94782.00;;;33.00;36.56
37972;BME280;23794;48.234;8.344;2023-08-20T12:56:12;94777.44;;;32.96;36.57
37972;BME280;23794;48.234;8.344;2023-08-20T12:58:39;94773.94;;;33.42;37.22
37972;BME280;23794;48.234;8.344;2023-08-20T13:01:06;94775.88;;;33.15;37.44
37972;BME280;23794;48.234;8.344;2023-08-20T13:03:33;94768.28;;;33.04;38.78
37972;BME280;23794;48.234;8.344;2023-08-20T13:06:00;94770.63;;;32.80;36.94
37972;BME280;23794;48.234;8.344;2023-08-20T13:08:27;94772.31;;;33.47;37.60
37972;BME280;23794;48.234;8.344;2023-08-20T13:10:57;94769.38;;;33.52;36.67
37972;BME280;23794;48.234;8.344;2023-08-20T13:13:24;94766.53;;;33.33;36.22
37972;BME280;23794;48.234;8.344;2023-08-20T13:15:52;94768.22;;;33.61;36.96
37972;BME280;23794;48.234;8.344;2023-08-20T13:18:21;94760.78;;;33.71;36.60
37972;BME280;23794;48.234;8.344;2023-08-20T13:20:55;94755.09;;;34.17;36.85